Time;durP1;ratioP1;P1;durP2;ratioP2;P2;SDS_P1;SDS_P2;PMS_P1;PMS_P2;Temp;Humidity;BMP_temperature;BMP_pressure;BME280_temperature;BME280_humidity;BME280_pressure;Samples;Min_cycle;Max_cycle;Signal;HPM_P1;HPM_P2
2022/01/11 00:03:40;;;;;;;17.38;10.88;;;;;;;;;;10415971;28;20211;-66
2022/01/11 00:08:44;;;;;;;16.70;9.60;;;;;;;;;;10431659;28;20679;-66
2022/01/11 00:13:45;;;;;;;13.40;9.75;;;;;;;;;;10417735;28;20227;-66
2022/01/11 00:18:46;;;;;;;13.27;10.15;;;;;;;;;;10414978;28;21196;-66
2022/01/11 00:28:48;;;;;;;11.20;8.27;;;;;;;;;;10414848;28;20219;-66
2022/01/11 00:34:00;;;;;;;12.68;8.30;;;;;;;;;;10428237;28;20226;-66
2022/01/11 00:39:01;;;;;;;12.02;8.70;;;;;;;;;;10419984;28;20206;-66
2022/01/11 00:44:03;;;;;;;14.70;9.15;;;;;;;;;;10412917;28;20200;-66
2022/01/11 00:49:04;;;;;;;17.45;10.77;;;;;;;;;;10429501;28;20223;-65
2022/01/11 00:54:05;;;;;;;17.25;10.18;;;;;;;;;;10437764;28;20210;-66
2022/01/11 00:59:06;;;;;;;14.75;9.93;;;;;;;;;;10456709;28;20183;-65
2022/01/11 01:04:07;;;;;;;13.45;10.00;;;;;;;;;;10452085;28;20577;-65
2022/01/11 01:09:09;;;;;;;13.68;9.70;;;;;;;;;;10439767;28;20198;-65
2022/01/11 01:14:16;;;;;;;13.48;9.25;;;;;;;;;;10450307;28;20248;-65
2022/01/11 01:19:19;;;;;;;13.48;9.45;;;;;;;;;;10452467;28;20194;-66
2022/01/11 01:24:20;;;;;;;14.10;9.65;;;;;;;;;;10453790;28;20195;-66
2022/01/11 01:29:21;;;;;;;14.70;9.85;;;;;;;;;;10454008;28;20285;-65
2022/01/11 01:34:23;;;;;;;17.88;11.13;;;;;;;;;;10455516;28;20226;-65
2022/01/11 01:39:25;;;;;;;17.08;10.65;;;;;;;;;;10448654;28;20743;-66
2022/01/11 01:44:26;;;;;;;18.92;10.63;;;;;;;;;;10454068;28;20198;-65
2022/01/11 01:49:28;;;;;;;14.75;10.05;;;;;;;;;;10435989;28;20225;-66
2022/01/11 01:54:30;;;;;;;15.13;10.80;;;;;;;;;;10453712;28;20215;-65
2022/01/11 01:59:31;;;;;;;13.13;10.20;;;;;;;;;;10448938;28;20199;-65
2022/01/11 02:04:32;;;;;;;17.20;10.73;;;;;;;;;;10435214;28;20743;-66
2022/01/11 02:09:33;;;;;;;13.85;9.63;;;;;;;;;;10456638;28;20201;-65
2022/01/11 02:14:34;;;;;;;13.60;9.88;;;;;;;;;;10453495;28;20217;-66
2022/01/11 02:19:38;;;;;;;14.35;10.10;;;;;;;;;;10453417;28;20178;-65
2022/01/11 02:24:40;;;;;;;16.25;10.25;;;;;;;;;;10437155;28;20188;-65
2022/01/11 02:29:42;;;;;;;16.50;10.30;;;;;;;;;;10442336;28;20206;-66
2022/01/11 02:34:44;;;;;;;6.10;5.57;;;;;;;;;;10422308;28;20214;-66
2022/01/11 02:40:02;;;;;;;7.07;5.82;;;;;;;;;;10447448;28;20195;-65
2022/01/11 02:45:18;;;;;;;12.50;7.80;;;;;;;;;;10453170;28;20216;-65
2022/01/11 02:50:20;;;;;;;12.95;9.13;;;;;;;;;;10424611;28;23224;-66
2022/01/11 02:55:24;;;;;;;15.35;8.88;;;;;;;;;;10424103;28;20350;-65
2022/01/11 03:00:25;;;;;;;11.82;8.38;;;;;;;;;;10411760;28;20191;-65
2022/01/11 03:05:26;;;;;;;11.32;7.38;;;;;;;;;;10410855;28;20270;-65
2022/01/11 03:10:32;;;;;;;5.75;5.25;;;;;;;;;;10423633;28;20622;-65
2022/01/11 03:15:35;;;;;;;5.28;4.80;;;;;;;;;;10420753;28;20585;-65
2022/01/11 03:20:40;;;;;;;6.15;5.65;;;;;;;;;;10408993;28;20800;-65
2022/01/11 03:25:41;;;;;;;7.93;6.72;;;;;;;;;;10408938;28;20614;-65
2022/01/11 03:30:44;;;;;;;7.65;6.88;;;;;;;;;;10412072;28;20232;-65
2022/01/11 03:35:46;;;;;;;7.15;6.45;;;;;;;;;;10409987;28;20552;-65
2022/01/11 03:40:47;;;;;;;9.23;7.47;;;;;;;;;;10408314;28;20195;-65
2022/01/11 03:45:49;;;;;;;7.93;6.72;;;;;;;;;;10415412;28;20201;-65
2022/01/11 03:50:54;;;;;;;8.43;7.43;;;;;;;;;;10413379;28;20212;-65
2022/01/11 03:56:23;;;;;;;7.80;6.78;;;;;;;;;;10414461;28;20779;-65
2022/01/11 04:01:31;;;;;;;10.82;6.95;;;;;;;;;;10426784;28;20962;-65
2022/01/11 04:06:32;;;;;;;9.05;7.10;;;;;;;;;;10423485;28;20199;-65
2022/01/11 04:11:34;;;;;;;7.43;6.72;;;;;;;;;;10425361;28;20207;-65
2022/01/11 04:16:35;;;;;;;9.25;7.13;;;;;;;;;;10421545;28;20198;-65
2022/01/11 04:21:38;;;;;;;7.55;6.68;;;;;;;;;;10427681;28;20671;-65
2022/01/11 04:26:40;;;;;;;8.23;6.93;;;;;;;;;;10429450;28;20190;-65
2022/01/11 04:31:41;;;;;;;7.35;6.68;;;;;;;;;;10417117;28;20246;-65
2022/01/11 04:36:48;;;;;;;8.07;7.07;;;;;;;;;;10428381;28;20583;-65
2022/01/11 04:41:50;;;;;;;9.05;7.53;;;;;;;;;;10427289;28;20186;-65
2022/01/11 04:46:53;;;;;;;10.80;7.68;;;;;;;;;;10431979;28;20698;-65
2022/01/11 04:51:55;;;;;;;8.90;8.00;;;;;;;;;;10451979;28;20252;-65
2022/01/11 04:56:56;;;;;;;10.88;7.85;;;;;;;;;;10454769;28;20206;-66
2022/01/11 05:01:59;;;;;;;9.90;8.38;;;;;;;;;;10451967;28;20975;-65
2022/01/11 05:07:00;;;;;;;12.35;8.13;;;;;;;;;;10450325;28;20202;-65
2022/01/11 05:12:01;;;;;;;11.20;8.02;;;;;;;;;;10444876;28;20214;-66
2022/01/11 05:17:03;;;;;;;13.00;9.35;;;;;;;;;;10450792;28;20724;-65
2022/01/11 05:22:04;;;;;;;16.33;10.38;;;;;;;;;;10446277;28;20203;-66
2022/01/11 05:27:05;;;;;;;16.88;11.18;;;;;;;;;;10447251;28;20318;-64
2022/01/11 05:32:06;;;;;;;15.90;10.25;;;;;;;;;;10450503;28;20992;-65
2022/01/11 05:37:08;;;;;;;15.45;10.10;;;;;;;;;;10430351;28;20244;-65
2022/01/11 05:42:09;;;;;;;17.63;10.88;;;;;;;;;;10440275;28;20598;-64
2022/01/11 05:47:10;;;;;;;18.40;10.38;;;;;;;;;;10450271;28;20223;-64
2022/01/11 05:52:11;;;;;;;16.40;10.95;;;;;;;;;;10414221;28;20199;-65
2022/01/11 05:57:13;;;;;;;16.48;10.32;;;;;;;;;;10397259;28;20675;-65
2022/01/11 06:02:15;;;;;;;15.68;10.35;;;;;;;;;;10409943;28;20661;-66
2022/01/11 06:07:16;;;;;;;18.33;11.75;;;;;;;;;;10401030;28;20252;-65
2022/01/11 06:12:18;;;;;;;18.80;11.15;;;;;;;;;;10393898;28;20705;-64
2022/01/11 06:17:19;;;;;;;17.83;10.38;;;;;;;;;;10408229;28;20253;-65
2022/01/11 06:22:21;;;;;;;16.58;10.63;;;;;;;;;;10403636;28;20830;-65
2022/01/11 06:27:22;;;;;;;18.63;11.68;;;;;;;;;;10406760;28;20191;-65
2022/01/11 06:32:23;;;;;;;17.20;11.20;;;;;;;;;;10412352;28;20218;-65
2022/01/11 06:37:25;;;;;;;18.20;12.35;;;;;;;;;;10398461;28;20195;-65
2022/01/11 06:42:27;;;;;;;21.52;12.77;;;;;;;;;;10402979;28;20215;-65
2022/01/11 06:47:28;;;;;;;18.63;11.90;;;;;;;;;;10403365;28;20213;-64
2022/01/11 06:52:30;;;;;;;19.85;12.98;;;;;;;;;;10433481;28;20206;-65
2022/01/11 06:57:31;;;;;;;20.95;12.85;;;;;;;;;;10436693;28;20183;-65
2022/01/11 07:02:33;;;;;;;20.88;12.30;;;;;;;;;;10444076;28;20210;-65
2022/01/11 07:07:54;;;;;;;16.65;11.93;;;;;;;;;;10447743;28;20221;-65
2022/01/11 07:12:57;;;;;;;20.13;12.52;;;;;;;;;;10442644;28;20210;-65
2022/01/11 07:17:58;;;;;;;18.98;11.45;;;;;;;;;;10434350;28;20287;-65
2022/01/11 07:23:00;;;;;;;19.80;11.98;;;;;;;;;;10439948;28;20231;-65
2022/01/11 07:28:01;;;;;;;28.85;15.35;;;;;;;;;;10449813;28;20225;-64
2022/01/11 07:33:03;;;;;;;31.77;15.77;;;;;;;;;;10435591;28;20723;-64
2022/01/11 07:38:04;;;;;;;28.83;15.73;;;;;;;;;;10442899;28;21103;-64
2022/01/11 07:43:06;;;;;;;32.33;16.85;;;;;;;;;;10455118;28;20186;-64
2022/01/11 07:48:19;;;;;;;29.88;16.23;;;;;;;;;;10452949;28;20309;-64
2022/01/11 07:53:27;;;;;;;33.25;15.80;;;;;;;;;;10434338;28;20234;-64
2022/01/11 07:58:33;;;;;;;32.47;16.75;;;;;;;;;;10451809;28;20226;-64
2022/01/11 08:03:35;;;;;;;43.17;19.55;;;;;;;;;;10461331;28;20210;-64
2022/01/11 08:08:42;;;;;;;41.47;19.50;;;;;;;;;;10443298;28;20198;-65
2022/01/11 08:13:44;;;;;;;40.08;19.17;;;;;;;;;;10444296;28;20608;-65
2022/01/11 08:18:46;;;;;;;34.00;17.27;;;;;;;;;;10457417;28;20187;-65
2022/01/11 08:23:47;;;;;;;37.85;17.40;;;;;;;;;;10446071;28;20198;-65
2022/01/11 08:28:49;;;;;;;35.70;17.95;;;;;;;;;;10438324;28;20310;-65
2022/01/11 08:33:50;;;;;;;41.72;18.45;;;;;;;;;;10454727;28;20218;-65
2022/01/11 08:38:52;;;;;;;43.40;20.15;;;;;;;;;;10440986;28;20190;-65
2022/01/11 08:43:55;;;;;;;40.72;19.70;;;;;;;;;;10440721;28;20792;-65
2022/01/11 08:48:56;;;;;;;38.55;18.88;;;;;;;;;;10448411;28;20346;-65
2022/01/11 08:53:58;;;;;;;55.70;23.35;;;;;;;;;;10443049;28;20237;-65
2022/01/11 08:59:00;;;;;;;67.75;25.00;;;;;;;;;;10441247;28;20197;-64
2022/01/11 09:04:06;;;;;;;69.72;27.35;;;;;;;;;;10441067;28;20214;-65
2022/01/11 09:09:19;;;;;;;57.85;22.10;;;;;;;;;;10438889;28;20198;-64
2022/01/11 09:14:21;;;;;;;59.65;23.02;;;;;;;;;;10438068;28;20207;-64
2022/01/11 09:19:23;;;;;;;51.80;20.73;;;;;;;;;;10439341;28;20301;-64
2022/01/11 09:24:29;;;;;;;48.92;19.67;;;;;;;;;;10440923;28;20214;-65
2022/01/11 09:29:34;;;;;;;45.13;19.17;;;;;;;;;;10445023;28;20191;-64
2022/01/11 09:34:38;;;;;;;37.72;17.73;;;;;;;;;;10456623;28;20222;-65
2022/01/11 09:39:43;;;;;;;63.85;26.63;;;;;;;;;;10440046;28;20241;-64
2022/01/11 09:44:44;;;;;;;78.28;31.92;;;;;;;;;;10435266;28;20245;-64
2022/01/11 09:49:46;;;;;;;114.15;37.95;;;;;;;;;;10446066;28;20347;-64
2022/01/11 09:54:48;;;;;;;151.90;45.85;;;;;;;;;;10438573;28;20295;-65
2022/01/11 09:59:53;;;;;;;156.95;48.10;;;;;;;;;;10439481;28;20190;-65
2022/01/11 10:05:26;;;;;;;181.35;50.72;;;;;;;;;;10455037;28;20765;-65
2022/01/11 10:10:30;;;;;;;179.70;48.95;;;;;;;;;;10438669;28;20205;-65
2022/01/11 10:15:40;;;;;;;177.13;48.15;;;;;;;;;;10454280;28;20879;-65
2022/01/11 10:20:47;;;;;;;177.25;50.17;;;;;;;;;;10444868;28;20278;-65
2022/01/11 10:25:52;;;;;;;191.40;49.05;;;;;;;;;;10453586;28;20670;-65
2022/01/11 10:30:53;;;;;;;203.98;51.55;;;;;;;;;;10443950;28;20210;-66
2022/01/11 10:35:55;;;;;;;191.20;51.53;;;;;;;;;;10454563;28;20233;-63
2022/01/11 10:41:07;;;;;;;193.63;50.53;;;;;;;;;;10445169;28;20218;-65
2022/01/11 10:46:08;;;;;;;184.05;47.83;;;;;;;;;;10432115;28;20195;-64
2022/01/11 10:51:14;;;;;;;185.63;48.75;;;;;;;;;;10437278;28;20242;-64
2022/01/11 10:56:18;;;;;;;190.98;50.80;;;;;;;;;;10436365;28;20583;-64
2022/01/11 11:01:31;;;;;;;183.75;48.33;;;;;;;;;;10455241;28;20242;-64
2022/01/11 11:06:32;;;;;;;182.57;50.78;;;;;;;;;;10455862;28;20252;-64
2022/01/11 11:11:34;;;;;;;185.05;50.17;;;;;;;;;;10443452;28;20201;-64
2022/01/11 11:17:01;;;;;;;196.38;50.22;;;;;;;;;;10435900;28;20219;-65
2022/01/11 11:22:04;;;;;;;192.55;50.60;;;;;;;;;;10436450;28;20850;-65
2022/01/11 11:27:05;;;;;;;189.52;50.88;;;;;;;;;;10453961;28;20256;-64
2022/01/11 11:32:06;;;;;;;169.18;45.95;;;;;;;;;;10462148;28;20218;-64
2022/01/11 11:37:08;;;;;;;176.77;46.67;;;;;;;;;;10463261;28;20198;-64
2022/01/11 11:42:10;;;;;;;196.20;50.40;;;;;;;;;;10458205;28;20191;-65
2022/01/11 11:47:11;;;;;;;179.18;49.22;;;;;;;;;;10462001;28;20222;-64
2022/01/11 11:52:18;;;;;;;172.32;48.75;;;;;;;;;;10461681;28;20194;-63
2022/01/11 11:57:20;;;;;;;181.93;50.22;;;;;;;;;;10460249;28;20582;-65
2022/01/11 12:02:35;;;;;;;191.88;52.03;;;;;;;;;;10461147;28;20202;-64
2022/01/11 12:07:42;;;;;;;190.70;51.97;;;;;;;;;;10463359;28;20321;-64
2022/01/11 12:12:49;;;;;;;193.60;51.03;;;;;;;;;;10461362;28;20210;-64
2022/01/11 12:17:56;;;;;;;207.30;53.08;;;;;;;;;;10461313;28;20195;-64
2022/01/11 12:22:57;;;;;;;181.45;49.75;;;;;;;;;;10437488;28;20217;-64
2022/01/11 12:27:59;;;;;;;191.65;51.05;;;;;;;;;;10438308;28;20803;-64
2022/01/11 12:33:32;;;;;;;184.82;49.33;;;;;;;;;;10453667;28;20223;-65
2022/01/11 12:38:34;;;;;;;189.73;49.22;;;;;;;;;;10441371;28;20202;-64
2022/01/11 12:43:39;;;;;;;184.32;48.83;;;;;;;;;;10457369;28;20298;-64
2022/01/11 12:48:50;;;;;;;161.50;46.40;;;;;;;;;;10431681;28;20823;-64
2022/01/11 12:54:08;;;;;;;151.50;43.42;;;;;;;;;;10451248;28;20426;-65
2022/01/11 12:59:09;;;;;;;151.02;44.22;;;;;;;;;;10454921;28;20580;-65
2022/01/11 13:04:10;;;;;;;130.93;41.58;;;;;;;;;;10454797;28;20214;-64
2022/01/11 13:09:12;;;;;;;143.82;43.33;;;;;;;;;;10436375;28;20222;-64
2022/01/11 13:14:18;;;;;;;116.32;38.05;;;;;;;;;;10441162;28;20949;-64
2022/01/11 13:19:19;;;;;;;99.05;37.53;;;;;;;;;;10449072;28;20552;-64
2022/01/11 13:29:22;;;;;;;111.05;38.38;;;;;;;;;;10450726;28;20195;-64
2022/01/11 13:34:24;;;;;;;97.50;35.15;;;;;;;;;;10451108;28;20255;-65
2022/01/11 13:39:35;;;;;;;108.25;37.78;;;;;;;;;;10438527;28;21034;-65
2022/01/11 13:44:38;;;;;;;109.55;35.83;;;;;;;;;;10451993;28;20201;-62
2022/01/11 13:49:40;;;;;;;103.18;36.15;;;;;;;;;;10455785;28;20604;-65
2022/01/11 13:54:52;;;;;;;98.88;37.05;;;;;;;;;;10451483;28;20300;-64
2022/01/11 13:59:56;;;;;;;103.05;35.75;;;;;;;;;;10439283;28;20650;-65
2022/01/11 14:05:00;;;;;;;113.50;37.03;;;;;;;;;;10452723;28;20726;-64
2022/01/11 14:10:04;;;;;;;112.65;37.80;;;;;;;;;;10454049;28;20203;-64
2022/01/11 14:15:06;;;;;;;98.20;35.88;;;;;;;;;;10433048;28;20214;-63
2022/01/11 14:20:12;;;;;;;108.45;36.65;;;;;;;;;;10450791;28;20194;-63
2022/01/11 14:25:24;;;;;;;128.50;41.92;;;;;;;;;;10450834;28;20210;-63
2022/01/11 14:30:32;;;;;;;117.20;37.92;;;;;;;;;;10449663;28;20189;-63
2022/01/11 14:35:33;;;;;;;120.47;40.08;;;;;;;;;;10453814;28;22370;-63
2022/01/11 14:40:35;;;;;;;108.38;36.97;;;;;;;;;;10448929;28;21057;-63
2022/01/11 14:45:56;;;;;;;122.88;38.72;;;;;;;;;;10452383;28;20193;-63
2022/01/11 14:50:57;;;;;;;124.95;40.67;;;;;;;;;;10450535;28;20302;-62
2022/01/11 14:55:58;;;;;;;126.82;38.30;;;;;;;;;;10456530;28;20221;-62
2022/01/11 15:01:00;;;;;;;116.93;37.33;;;;;;;;;;10456041;28;20250;-63
2022/01/11 15:06:02;;;;;;;122.90;36.78;;;;;;;;;;10453283;28;20206;-63
2022/01/11 15:11:05;;;;;;;119.75;37.75;;;;;;;;;;10452059;28;20919;-63
2022/01/11 15:16:06;;;;;;;125.40;39.28;;;;;;;;;;10452603;28;20241;-64
2022/01/11 15:21:08;;;;;;;114.15;38.47;;;;;;;;;;10446838;28;20195;-63
2022/01/11 15:26:10;;;;;;;116.45;37.25;;;;;;;;;;10449150;28;20198;-63
2022/01/11 15:31:11;;;;;;;111.18;35.25;;;;;;;;;;10438529;28;20341;-63
2022/01/11 15:36:12;;;;;;;108.00;35.17;;;;;;;;;;10447452;28;20217;-64
2022/01/11 15:41:13;;;;;;;120.97;36.95;;;;;;;;;;10444373;28;20300;-64
2022/01/11 15:46:14;;;;;;;122.63;35.60;;;;;;;;;;10446856;28;20190;-62
2022/01/11 15:51:16;;;;;;;112.63;34.75;;;;;;;;;;10452877;28;20309;-63
2022/01/11 15:56:17;;;;;;;113.10;36.58;;;;;;;;;;10446059;28;20306;-63
2022/01/11 16:01:20;;;;;;;113.60;35.33;;;;;;;;;;10447753;28;20333;-64
2022/01/11 16:06:21;;;;;;;106.82;33.55;;;;;;;;;;10453539;28;20316;-64
2022/01/11 16:11:22;;;;;;;117.70;32.88;;;;;;;;;;10445233;28;20194;-64
2022/01/11 16:16:23;;;;;;;114.15;33.95;;;;;;;;;;10455227;28;20221;-62
2022/01/11 16:21:24;;;;;;;117.10;35.22;;;;;;;;;;10457843;28;20197;-62
2022/01/11 16:26:25;;;;;;;117.47;36.00;;;;;;;;;;10437756;28;20268;-63
2022/01/11 16:31:26;;;;;;;120.63;35.25;;;;;;;;;;10445540;28;20209;-63
2022/01/11 16:36:28;;;;;;;124.40;33.83;;;;;;;;;;10456588;28;20214;-63
2022/01/11 16:46:53;;;;;;;124.68;35.63;;;;;;;;;;10414905;28;20202;-62
2022/01/11 16:51:54;;;;;;;111.43;34.58;;;;;;;;;;10413398;28;20206;-63
2022/01/11 16:56:55;;;;;;;138.13;36.70;;;;;;;;;;10413537;28;20724;-62
2022/01/11 17:01:57;;;;;;;137.27;38.35;;;;;;;;;;10414391;28;20305;-65
2022/01/11 17:06:58;;;;;;;139.95;37.45;;;;;;;;;;10413522;28;20250;-64
2022/01/11 17:12:01;;;;;;;121.38;35.47;;;;;;;;;;10404958;28;20195;-63
2022/01/11 17:17:02;;;;;;;133.77;35.45;;;;;;;;;;10416389;28;20207;-63
2022/01/11 17:22:03;;;;;;;135.73;38.38;;;;;;;;;;10410139;28;20195;-64
2022/01/11 17:27:04;;;;;;;157.52;39.55;;;;;;;;;;10406018;28;22167;-64
2022/01/11 17:32:06;;;;;;;133.38;37.95;;;;;;;;;;10407322;28;20215;-64
2022/01/11 17:37:07;;;;;;;143.50;37.10;;;;;;;;;;10407586;28;20261;-64
2022/01/11 17:42:08;;;;;;;144.63;38.58;;;;;;;;;;10411133;28;20196;-64
2022/01/11 17:47:09;;;;;;;164.38;39.63;;;;;;;;;;10409875;28;20226;-64
2022/01/11 17:52:10;;;;;;;146.55;37.00;;;;;;;;;;10408228;28;20194;-63
2022/01/11 17:57:13;;;;;;;133.27;35.42;;;;;;;;;;10411590;28;20205;-63
2022/01/11 18:02:16;;;;;;;126.28;33.03;;;;;;;;;;10409083;28;20215;-63
2022/01/11 18:07:17;;;;;;;107.63;31.92;;;;;;;;;;10411435;28;20195;-62
2022/01/11 18:12:20;;;;;;;100.65;28.92;;;;;;;;;;10406823;28;20195;-63
2022/01/11 18:17:21;;;;;;;127.72;32.85;;;;;;;;;;10406274;28;20201;-63
2022/01/11 18:22:22;;;;;;;108.13;31.13;;;;;;;;;;10411552;28;20284;-64
2022/01/11 18:27:23;;;;;;;117.82;31.63;;;;;;;;;;10404371;28;20210;-64
2022/01/11 18:32:24;;;;;;;131.80;35.13;;;;;;;;;;10414565;28;20676;-64
2022/01/11 18:37:26;;;;;;;101.70;30.40;;;;;;;;;;10408269;28;20195;-63
2022/01/11 18:42:27;;;;;;;122.65;31.90;;;;;;;;;;10408815;28;21538;-63
2022/01/11 18:47:28;;;;;;;133.65;33.20;;;;;;;;;;10410194;28;20276;-63
2022/01/11 18:52:29;;;;;;;129.48;32.22;;;;;;;;;;10412841;28;20195;-63
2022/01/11 18:57:31;;;;;;;129.30;33.78;;;;;;;;;;10413557;28;20191;-63
2022/01/11 19:02:32;;;;;;;128.23;32.90;;;;;;;;;;10414335;28;20222;-63
2022/01/11 19:07:33;;;;;;;113.20;30.92;;;;;;;;;;10411103;28;20986;-64
2022/01/11 19:12:36;;;;;;;143.55;32.67;;;;;;;;;;10393768;28;20289;-63
2022/01/11 19:17:37;;;;;;;142.95;34.40;;;;;;;;;;10408975;28;21053;-63
2022/01/11 19:22:38;;;;;;;127.47;34.47;;;;;;;;;;10407432;28;20282;-64
2022/01/11 19:27:40;;;;;;;140.52;33.33;;;;;;;;;;10397828;28;20193;-63
2022/01/11 19:32:41;;;;;;;115.10;32.33;;;;;;;;;;10411192;28;20222;-63
2022/01/11 19:37:42;;;;;;;130.00;33.17;;;;;;;;;;10396410;28;20198;-64
2022/01/11 19:42:43;;;;;;;120.05;35.13;;;;;;;;;;10409506;28;21051;-64
2022/01/11 19:47:44;;;;;;;126.78;31.98;;;;;;;;;;10400269;28;20215;-64
2022/01/11 19:52:47;;;;;;;127.10;32.25;;;;;;;;;;10398317;28;20592;-64
2022/01/11 19:57:49;;;;;;;129.38;30.88;;;;;;;;;;10393176;28;20239;-64
2022/01/11 20:02:50;;;;;;;121.18;33.47;;;;;;;;;;10384643;28;20223;-65
2022/01/11 20:07:52;;;;;;;136.15;35.30;;;;;;;;;;10387587;28;21320;-64
2022/01/11 20:12:53;;;;;;;135.35;33.78;;;;;;;;;;10397226;28;20215;-65
2022/01/11 20:17:54;;;;;;;114.80;32.58;;;;;;;;;;10403313;28;20232;-64
2022/01/11 20:28:15;;;;;;;124.70;34.95;;;;;;;;;;10401469;28;20283;-64
2022/01/11 20:33:16;;;;;;;124.72;33.47;;;;;;;;;;10396855;28;20223;-64
2022/01/11 20:38:17;;;;;;;130.10;34.75;;;;;;;;;;10410521;28;20274;-65
2022/01/11 20:43:18;;;;;;;139.00;35.83;;;;;;;;;;10403240;28;20202;-65
2022/01/11 20:48:22;;;;;;;130.73;33.15;;;;;;;;;;10387228;28;21033;-65
2022/01/11 20:53:24;;;;;;;115.13;32.13;;;;;;;;;;10404273;28;20216;-65
2022/01/11 20:58:29;;;;;;;110.93;32.38;;;;;;;;;;10403510;28;20196;-64
2022/01/11 21:03:30;;;;;;;114.50;31.42;;;;;;;;;;10407048;28;20322;-65
2022/01/11 21:08:31;;;;;;;123.53;31.08;;;;;;;;;;10403036;28;20195;-65
2022/01/11 21:13:33;;;;;;;120.80;31.42;;;;;;;;;;10402274;28;20788;-65
2022/01/11 21:23:55;;;;;;;112.30;30.52;;;;;;;;;;10405988;28;20207;-63
2022/01/11 21:28:56;;;;;;;97.93;30.05;;;;;;;;;;10405837;28;20221;-65
2022/01/11 21:34:00;;;;;;;104.10;28.85;;;;;;;;;;10390125;28;20231;-65
2022/01/11 21:39:02;;;;;;;124.68;31.58;;;;;;;;;;10408580;28;20270;-64
2022/01/11 21:44:05;;;;;;;133.80;32.67;;;;;;;;;;10410931;28;20301;-64
2022/01/11 21:49:07;;;;;;;115.25;31.58;;;;;;;;;;10390287;28;20285;-65
2022/01/11 21:54:08;;;;;;;119.70;32.88;;;;;;;;;;10413306;28;20207;-65
2022/01/11 21:59:10;;;;;;;110.60;31.25;;;;;;;;;;10414555;28;20782;-65
2022/01/11 22:04:11;;;;;;;100.13;29.63;;;;;;;;;;10406320;28;20242;-64
2022/01/11 22:09:15;;;;;;;123.40;30.88;;;;;;;;;;10414285;28;20226;-65
2022/01/11 22:19:28;;;;;;;109.03;32.63;;;;;;;;;;10413786;28;20600;-64
2022/01/11 22:24:31;;;;;;;120.72;32.08;;;;;;;;;;10411675;28;20800;-65
2022/01/11 22:29:32;;;;;;;123.38;32.33;;;;;;;;;;10415901;28;20198;-65
2022/01/11 22:34:34;;;;;;;127.85;33.95;;;;;;;;;;10412431;28;20302;-65
2022/01/11 22:39:36;;;;;;;114.70;32.15;;;;;;;;;;10401605;28;20219;-64
2022/01/11 22:44:37;;;;;;;139.18;33.67;;;;;;;;;;10390866;28;20696;-65
2022/01/11 22:49:38;;;;;;;116.38;33.65;;;;;;;;;;10411151;28;20297;-65
2022/01/11 22:54:41;;;;;;;125.93;32.78;;;;;;;;;;10406539;28;20203;-65
2022/01/11 22:59:43;;;;;;;115.95;32.53;;;;;;;;;;10411567;28;20274;-64
2022/01/11 23:04:44;;;;;;;132.52;32.65;;;;;;;;;;10405103;28;20211;-65
2022/01/11 23:09:45;;;;;;;119.00;32.67;;;;;;;;;;10405991;28;20215;-65
2022/01/11 23:14:56;;;;;;;128.93;32.72;;;;;;;;;;10394605;28;20203;-65
2022/01/11 23:19:57;;;;;;;119.60;33.28;;;;;;;;;;10396357;28;20235;-65
2022/01/11 23:24:58;;;;;;;108.07;29.88;;;;;;;;;;10413883;28;21116;-65
2022/01/11 23:29:59;;;;;;;114.97;31.67;;;;;;;;;;10416535;28;20198;-65
2022/01/11 23:35:00;;;;;;;111.25;30.90;;;;;;;;;;10398326;28;20218;-65
2022/01/11 23:40:32;;;;;;;115.55;32.28;;;;;;;;;;10420099;28;20978;-65
2022/01/11 23:50:33;;;;;;;123.28;32.03;;;;;;;;;;10412022;28;20219;-65
2022/01/11 23:55:34;;;;;;;91.28;29.92;;;;;;;;;;10410724;28;20219;-65
